Time;durP1;ratioP1;P1;durP2;ratioP2;P2;SDS_P1;SDS_P2;PMS_P1;PMS_P2;Temp;Humidity;BMP_temperature;BMP_pressure;BME280_temperature;BME280_humidity;BME280_pressure;Samples;Min_cycle;Max_cycle;Signal;HPM_P1;HPM_P2
2021/09/16 00:00:40;;;;;;;8.80;4.67;;;;;;;11.56;94.29;101359.94;2098162;28;20554;-62
2021/09/16 00:01:41;;;;;;;9.47;4.67;;;;;;;11.56;93.79;101370.41;2098104;28;20058;-62
2021/09/16 00:02:42;;;;;;;7.27;3.90;;;;;;;11.55;94.61;101368.72;2098101;28;20029;-64
2021/09/16 00:03:42;;;;;;;4.68;4.20;;;;;;;11.55;94.48;101360.88;2098145;28;20016;-63
2021/09/16 00:04:42;;;;;;;8.23;4.47;;;;;;;11.56;94.93;101365.19;2089168;28;20025;-62
2021/09/16 00:05:43;;;;;;;11.87;4.83;;;;;;;11.56;94.13;101365.19;2089276;28;20462;-63
2021/09/16 00:06:43;;;;;;;6.77;3.73;;;;;;;11.56;94.48;101367.78;2089198;28;20071;-63
2021/09/16 00:07:44;;;;;;;7.70;3.97;;;;;;;11.59;94.58;101369.44;2089076;28;20290;-64
2021/09/16 00:08:45;;;;;;;9.93;4.78;;;;;;;11.58;94.73;101368.59;2089390;28;20067;-61
2021/09/16 00:09:45;;;;;;;4.87;3.73;;;;;;;11.57;93.90;101372.09;2098160;28;20503;-62
2021/09/16 00:10:46;;;;;;;11.77;5.20;;;;;;;11.58;94.57;101373.81;2098040;28;20094;-63
2021/09/16 00:11:46;;;;;;;6.78;4.43;;;;;;;11.60;94.46;101376.34;2089098;28;20054;-63
2021/09/16 00:12:47;;;;;;;8.40;4.20;;;;;;;11.59;94.68;101370.28;2089188;28;20041;-62
2021/09/16 00:13:47;;;;;;;6.00;4.50;;;;;;;11.62;94.56;101379.78;2097951;28;20525;-63
2021/09/16 00:14:47;;;;;;;8.20;4.90;;;;;;;11.62;94.27;101378.91;2098050;28;20025;-63
2021/09/16 00:15:48;;;;;;;7.57;4.50;;;;;;;11.62;94.31;101376.28;2098094;28;20103;-65
2021/09/16 00:16:48;;;;;;;6.97;4.78;;;;;;;11.58;94.39;101379.06;2098193;28;20447;-63
2021/09/16 00:17:49;;;;;;;6.88;4.63;;;;;;;11.57;94.41;101373.88;2098105;28;20036;-63
2021/09/16 00:18:49;;;;;;;11.33;4.67;;;;;;;11.55;94.72;101373.94;2098228;28;20016;-62
2021/09/16 00:19:49;;;;;;;6.83;4.90;;;;;;;11.53;94.08;101380.97;2098615;28;20029;-63
2021/09/16 00:20:50;;;;;;;6.47;4.73;;;;;;;11.50;94.06;101375.84;2099439;28;20090;-62
2021/09/16 00:21:50;;;;;;;9.65;4.60;;;;;;;11.49;94.24;101374.16;2099435;28;20024;-63
2021/09/16 00:22:50;;;;;;;6.33;4.77;;;;;;;11.48;94.28;101366.38;2099506;28;20111;-63
2021/09/16 00:23:51;;;;;;;7.43;4.73;;;;;;;11.48;94.38;101372.47;2099498;28;20031;-63
2021/09/16 00:24:51;;;;;;;7.47;4.80;;;;;;;11.48;94.52;101377.69;2099551;28;20036;-63
2021/09/16 00:25:51;;;;;;;7.23;4.57;;;;;;;11.49;94.52;101376.75;2099460;28;20083;-62
2021/09/16 00:26:51;;;;;;;7.67;5.10;;;;;;;11.47;94.65;101373.38;2099532;28;20048;-62
2021/09/16 00:27:52;;;;;;;9.50;5.03;;;;;;;11.48;95.04;101382.91;2099553;28;20016;-63
2021/09/16 00:28:52;;;;;;;7.37;4.53;;;;;;;11.46;94.96;101377.75;2099443;28;20052;-63
2021/09/16 00:29:52;;;;;;;10.97;4.63;;;;;;;11.45;94.56;101372.56;2099448;28;20024;-63
2021/09/16 00:30:53;;;;;;;7.10;4.23;;;;;;;11.43;94.85;101377.84;2099556;28;20033;-64
2021/09/16 00:31:53;;;;;;;6.53;4.53;;;;;;;11.42;94.47;101377.91;2099515;28;20561;-62
2021/09/16 00:32:53;;;;;;;13.93;5.20;;;;;;;11.40;94.55;101374.50;2099444;28;20032;-63
2021/09/16 00:33:53;;;;;;;6.20;4.40;;;;;;;11.38;95.05;101378.94;2099406;28;20024;-63
2021/09/16 00:34:53;;;;;;;9.30;4.57;;;;;;;11.39;95.43;101372.81;2099440;28;20141;-63
2021/09/16 00:35:54;;;;;;;9.13;4.13;;;;;;;11.37;95.34;101372.00;2099433;28;20028;-62
2021/09/16 00:36:54;;;;;;;9.43;4.27;;;;;;;11.34;95.52;101370.38;2090417;28;20059;-63
2021/09/16 00:37:54;;;;;;;8.43;4.27;;;;;;;11.33;95.30;101377.34;2090525;28;20028;-63
2021/09/16 00:38:55;;;;;;;6.93;4.63;;;;;;;11.32;95.73;101378.25;2099408;28;20537;-65
2021/09/16 00:39:55;;;;;;;9.07;5.00;;;;;;;11.31;95.34;101376.56;2099435;28;20397;-63
2021/09/16 00:40:55;;;;;;;8.30;4.73;;;;;;;11.29;95.40;101369.69;2099362;28;20286;-63
2021/09/16 00:41:56;;;;;;;5.03;3.90;;;;;;;11.29;95.67;101372.31;2099316;28;20441;-62
2021/09/16 00:42:56;;;;;;;6.47;4.60;;;;;;;11.27;95.41;101369.75;2099324;28;20029;-61
2021/09/16 00:43:58;;;;;;;7.30;4.87;;;;;;;11.28;95.91;101370.56;2099457;28;20028;-63
2021/09/16 00:44:58;;;;;;;7.05;4.45;;;;;;;11.26;95.51;101370.63;2099365;28;20021;-63
2021/09/16 00:46:03;;;;;;;8.57;5.40;;;;;;;11.25;95.51;101365.50;2090466;28;20517;-62
2021/09/16 00:47:03;;;;;;;11.30;4.43;;;;;;;11.23;95.17;101362.94;2090984;28;20368;-63
2021/09/16 00:48:04;;;;;;;7.30;4.87;;;;;;;11.22;95.81;101363.81;2099346;28;20051;-63
2021/09/16 00:49:06;;;;;;;6.95;4.35;;;;;;;11.22;95.69;101369.03;2099262;28;20029;-62
2021/09/16 00:50:08;;;;;;;8.95;4.40;;;;;;;11.19;95.42;101362.19;2090259;28;20500;-63
2021/09/16 00:51:08;;;;;;;;;;;;;;;11.23;96.09;101372.53;2082665;28;20510;-63
2021/09/16 00:52:10;;;;;;;10.13;4.83;;;;;;;11.23;96.06;101360.31;2090508;28;19909;-63
2021/09/16 00:53:10;;;;;;;5.72;4.05;;;;;;;11.22;95.79;101366.44;2099329;28;20357;-63
2021/09/16 00:54:13;;;;;;;5.40;4.72;;;;;;;11.19;95.68;101362.19;2090299;28;20512;-64
2021/09/16 00:55:14;;;;;;;13.45;5.05;;;;;;;11.21;96.10;101369.97;2090645;28;20021;-63
2021/09/16 00:56:15;;;;;;;8.38;5.50;;;;;;;11.21;96.25;101364.75;2099268;28;20036;-62
2021/09/16 00:57:16;;;;;;;;;;;;;;;11.24;95.95;101364.63;2099752;28;20028;-63
2021/09/16 00:58:18;;;;;;;5.28;4.03;;;;;;;11.25;95.84;101365.50;2099245;28;20373;-64
2021/09/16 00:59:21;;;;;;;6.30;4.45;;;;;;;11.24;96.35;101362.00;2099214;28;20504;-62
2021/09/16 01:00:23;;;;;;;9.73;5.10;;;;;;;11.23;95.78;101368.16;2099250;28;20036;-63
2021/09/16 01:01:23;;;;;;;7.88;4.95;;;;;;;11.22;95.98;101370.81;2099180;28;20032;-62
2021/09/16 01:02:24;;;;;;;8.33;4.80;;;;;;;11.18;96.03;101375.28;2099118;28;20474;-62
2021/09/16 01:03:25;;;;;;;6.87;4.73;;;;;;;11.18;96.17;101370.06;2099225;28;20103;-63
2021/09/16 01:04:26;;;;;;;9.48;5.38;;;;;;;11.19;95.98;101379.63;2099195;28;20091;-63
2021/09/16 01:05:26;;;;;;;6.25;4.50;;;;;;;11.19;96.49;101377.03;2099217;28;20028;-64
2021/09/16 01:06:27;;;;;;;6.80;4.67;;;;;;;11.19;96.02;101379.63;2099281;28;20095;-64
2021/09/16 01:07:28;;;;;;;9.57;5.03;;;;;;;11.18;96.07;101375.28;2099134;28;20099;-63
2021/09/16 01:08:29;;;;;;;8.63;4.38;;;;;;;11.20;95.66;101376.09;2099090;28;20441;-64
2021/09/16 01:09:31;;;;;;;6.43;4.63;;;;;;;11.19;95.57;101382.25;2099243;28;20020;-64
2021/09/16 01:10:32;;;;;;;5.85;4.20;;;;;;;11.17;96.46;101379.69;2099247;28;20028;-63
2021/09/16 01:11:32;;;;;;;;;;;;;;;11.18;96.12;101376.16;2099632;28;20095;-62
2021/09/16 01:12:33;;;;;;;4.77;4.37;;;;;;;11.19;96.25;101379.63;2090191;28;19908;-64
2021/09/16 01:13:33;;;;;;;7.32;4.45;;;;;;;11.19;96.17;101390.91;2090284;28;20280;-63
2021/09/16 01:14:33;;;;;;;7.20;4.03;;;;;;;11.19;96.20;101382.25;2099069;28;20103;-63
2021/09/16 01:15:34;;;;;;;6.73;4.23;;;;;;;11.18;95.94;101390.97;2099057;28;20028;-63
2021/09/16 01:16:34;;;;;;;6.97;4.93;;;;;;;11.17;95.74;101373.59;2099136;28;20032;-62
2021/09/16 01:17:35;;;;;;;5.43;4.80;;;;;;;11.17;96.05;101373.59;2090142;28;20083;-64
2021/09/16 01:18:35;;;;;;;8.50;5.15;;;;;;;11.14;96.24;101390.25;2090256;28;20521;-63
2021/09/16 01:19:35;;;;;;;6.37;4.37;;;;;;;11.13;95.76;101387.69;2099227;28;20061;-63
2021/09/16 01:20:36;;;;;;;7.33;4.57;;;;;;;11.13;96.00;101383.31;2089953;28;20124;-63
2021/09/16 01:21:36;;;;;;;8.30;4.93;;;;;;;11.11;96.03;101379.88;2090152;28;20283;-62
2021/09/16 01:22:36;;;;;;;7.20;5.07;;;;;;;11.12;96.61;101384.19;2098968;28;20028;-63
2021/09/16 01:23:37;;;;;;;7.63;5.07;;;;;;;11.12;96.27;101380.75;2099093;28;20105;-63
2021/09/16 01:24:37;;;;;;;5.83;5.30;;;;;;;11.11;96.14;101379.88;2090066;28;20064;-64
2021/09/16 01:25:37;;;;;;;9.10;5.97;;;;;;;11.09;96.20;101376.50;2090140;28;20549;-63
2021/09/16 01:26:39;;;;;;;6.65;5.40;;;;;;;11.11;95.90;101376.41;2098903;28;20056;-62
2021/09/16 01:27:39;;;;;;;8.15;4.85;;;;;;;11.10;96.80;101377.34;2098924;28;20024;-64
2021/09/16 01:28:40;;;;;;;6.37;5.03;;;;;;;11.11;96.79;101384.25;2098985;28;20104;-63
2021/09/16 01:29:40;;;;;;;11.23;5.40;;;;;;;11.11;96.38;101373.81;2098902;28;20354;-62
2021/09/16 01:30:40;;;;;;;10.03;4.63;;;;;;;11.11;96.19;101382.50;2098873;28;20030;-63
2021/09/16 01:31:47;;;;;;;6.63;5.53;;;;;;;11.08;96.50;101375.63;2098020;28;20504;-62
2021/09/16 01:32:49;;;;;;;6.22;4.57;;;;;;;11.07;96.37;101380.91;2098900;28;20024;-63
2021/09/16 01:33:49;;;;;;;9.63;5.60;;;;;;;11.03;96.81;101382.78;2098936;28;20069;-62
2021/09/16 01:34:50;;;;;;;6.67;4.43;;;;;;;11.03;96.36;101381.94;2089976;28;20079;-63
2021/09/16 01:35:50;;;;;;;10.10;4.80;;;;;;;11.02;97.04;101380.22;2090173;28;20086;-61
2021/09/16 01:36:51;;;;;;;8.87;5.03;;;;;;;11.03;96.96;101385.41;2099002;28;20058;-62
2021/09/16 01:37:51;;;;;;;7.17;4.43;;;;;;;11.03;97.14;101371.47;2098889;28;20111;-63
2021/09/16 01:38:51;;;;;;;12.30;5.43;;;;;;;11.03;97.01;101385.41;2089912;28;20021;-63
2021/09/16 01:39:52;;;;;;;6.57;4.70;;;;;;;11.02;96.87;101381.06;2090222;28;20052;-63
2021/09/16 01:40:52;;;;;;;8.13;5.03;;;;;;;11.06;96.62;101380.06;2098793;28;20020;-63
2021/09/16 01:41:52;;;;;;;7.80;5.17;;;;;;;11.09;96.67;101373.88;2098732;28;20127;-63
2021/09/16 01:42:53;;;;;;;8.33;4.73;;;;;;;11.09;96.81;101381.72;2090047;28;20033;-63
2021/09/16 01:43:54;;;;;;;6.70;5.05;;;;;;;11.10;96.79;101382.56;2090152;28;20370;-63
2021/09/16 01:44:54;;;;;;;19.50;5.17;;;;;;;11.09;96.73;101379.13;2098945;28;20024;-63
2021/09/16 01:45:54;;;;;;;6.23;4.23;;;;;;;11.04;96.50;101384.50;2098791;28;20028;-62
2021/09/16 01:46:54;;;;;;;13.27;5.37;;;;;;;11.01;96.70;101387.22;2098898;28;20154;-62
2021/09/16 01:47:55;;;;;;;14.17;4.83;;;;;;;10.99;96.85;101382.94;2089927;28;20029;-62
2021/09/16 01:48:59;;;;;;;9.68;4.65;;;;;;;10.98;96.66;101384.69;2089885;28;20029;-62
2021/09/16 01:50:00;;;;;;;4.47;3.40;;;;;;;10.99;97.11;101386.44;2090267;28;20025;-62
2021/09/16 01:51:00;;;;;;;9.57;4.33;;;;;;;11.04;97.09;101388.84;2098733;28;20031;-63
2021/09/16 01:52:00;;;;;;;5.13;4.27;;;;;;;11.04;97.08;101381.00;2098863;28;20025;-62
2021/09/16 01:53:00;;;;;;;8.40;4.43;;;;;;;11.03;96.76;101388.03;2098854;28;20107;-62
2021/09/16 01:54:02;;;;;;;5.43;3.87;;;;;;;11.03;97.21;101387.16;2098877;28;20091;-63
2021/09/16 01:55:03;;;;;;;8.32;4.65;;;;;;;11.02;96.96;101386.28;2098817;28;20441;-62
2021/09/16 01:56:04;;;;;;;7.78;4.82;;;;;;;11.01;97.11;101384.59;2089891;28;20502;-63
2021/09/16 01:57:04;;;;;;;7.45;4.60;;;;;;;11.00;96.64;101377.69;2089873;28;20075;-62
2021/09/16 01:58:04;;;;;;;11.30;4.43;;;;;;;11.00;97.66;101382.91;2098775;28;20028;-64
2021/09/16 01:59:05;;;;;;;8.87;4.63;;;;;;;10.99;96.92;101383.81;2098994;28;20732;-63
2021/09/16 02:00:07;;;;;;;9.87;4.93;;;;;;;10.98;97.12;101381.25;2098684;28;20032;-63
2021/09/16 02:01:08;;;;;;;6.53;5.00;;;;;;;10.97;97.33;101383.00;2089486;28;20033;-62
2021/09/16 02:02:08;;;;;;;6.80;4.50;;;;;;;10.98;97.66;101379.47;2089861;28;20362;-64
2021/09/16 02:03:08;;;;;;;12.60;5.37;;;;;;;10.99;97.32;101388.16;2098512;28;20113;-63
2021/09/16 02:04:09;;;;;;;5.80;5.20;;;;;;;10.96;97.34;101386.53;2098667;28;20020;-62
2021/09/16 02:05:10;;;;;;;7.60;4.93;;;;;;;10.95;97.35;101392.66;2098769;28;20016;-64
2021/09/16 02:06:11;;;;;;;6.05;4.50;;;;;;;10.95;97.13;101393.50;2098661;28;20021;-63
2021/09/16 02:07:11;;;;;;;11.73;5.97;;;;;;;10.96;97.04;101396.97;2089721;28;20412;-62
2021/09/16 02:08:11;;;;;;;7.13;5.67;;;;;;;10.96;97.41;101389.13;2089776;28;20056;-62
2021/09/16 02:09:11;;;;;;;5.53;4.80;;;;;;;10.96;97.19;101391.75;2098568;28;20026;-63
2021/09/16 02:10:12;;;;;;;12.37;4.03;;;;;;;10.94;97.41;101394.41;2089741;28;20032;-62
2021/09/16 02:11:12;;;;;;;8.00;5.27;;;;;;;10.93;97.27;101389.25;2089827;28;20057;-62
2021/09/16 02:12:12;;;;;;;6.77;4.43;;;;;;;10.94;97.69;101396.16;2098554;28;20027;-63
2021/09/16 02:13:12;;;;;;;6.77;4.30;;;;;;;10.94;97.03;101398.78;2098712;28;20484;-63
2021/09/16 02:14:13;;;;;;;8.23;4.80;;;;;;;10.94;97.25;101396.16;2098670;28;20028;-62
2021/09/16 02:15:13;;;;;;;6.63;4.80;;;;;;;10.96;97.62;101396.97;2098530;28;20056;-63
2021/09/16 02:16:13;;;;;;;5.90;4.03;;;;;;;10.94;97.22;101404.00;2098620;28;20071;-63
2021/09/16 02:17:14;;;;;;;8.53;4.83;;;;;;;10.94;97.26;101404.00;2098716;28;20548;-63
2021/09/16 02:18:14;;;;;;;9.03;5.37;;;;;;;10.90;97.21;101405.88;2089604;28;20345;-62
2021/09/16 02:19:14;;;;;;;9.73;5.40;;;;;;;10.89;97.49;101403.31;2089822;28;20375;-63
2021/09/16 02:20:15;;;;;;;12.00;4.87;;;;;;;10.89;97.44;101405.91;2098400;28;20501;-63
2021/09/16 02:21:15;;;;;;;9.67;4.57;;;;;;;10.89;97.83;101405.91;2098720;28;20064;-63
2021/09/16 02:22:15;;;;;;;7.90;4.57;;;;;;;10.88;98.21;101404.22;2098459;28;20035;-62
2021/09/16 02:23:15;;;;;;;6.23;4.93;;;;;;;10.86;97.58;101403.41;2098521;28;20064;-63
2021/09/16 02:24:16;;;;;;;8.70;4.97;;;;;;;10.85;97.84;101406.94;2098568;28;20024;-62
2021/09/16 02:25:16;;;;;;;5.50;3.67;;;;;;;10.85;98.01;101399.97;2098526;28;20064;-62
2021/09/16 02:26:17;;;;;;;7.97;5.22;;;;;;;10.87;97.65;101403.38;2098753;28;20074;-63
2021/09/16 02:27:17;;;;;;;13.13;7.50;;;;;;;10.89;97.30;101405.91;2098417;28;20059;-62
2021/09/16 02:28:17;;;;;;;10.33;3.80;;;;;;;10.89;98.19;101400.69;2089573;28;20037;-64
2021/09/16 02:29:18;;;;;;;11.80;4.63;;;;;;;10.89;97.87;101403.31;2081353;28;20029;-63
2021/09/16 02:30:18;;;;;;;6.90;5.17;;;;;;;10.89;97.71;101400.69;2089624;28;20098;-62
2021/09/16 02:31:18;;;;;;;12.57;5.53;;;;;;;10.89;97.80;101400.69;2098511;28;20021;-63
2021/09/16 02:32:20;;;;;;;7.37;5.27;;;;;;;10.89;98.16;101400.69;2098564;28;20020;-63
2021/09/16 02:33:20;;;;;;;6.70;4.53;;;;;;;10.89;97.72;101405.91;2098490;28;20146;-63
2021/09/16 02:34:21;;;;;;;6.30;5.33;;;;;;;10.89;97.39;101406.78;2098545;28;20028;-62
2021/09/16 02:35:21;;;;;;;8.27;5.53;;;;;;;10.88;97.73;101401.63;2098519;28;20055;-63
2021/09/16 02:36:21;;;;;;;9.40;5.63;;;;;;;10.85;98.46;101399.97;2098542;28;20103;-63
2021/09/16 02:37:23;;;;;;;9.73;5.40;;;;;;;10.83;97.72;101412.22;2089573;28;20025;-64
2021/09/16 02:38:23;;;;;;;7.20;5.10;;;;;;;10.81;97.67;101401.81;2089770;28;20017;-63
2021/09/16 02:39:23;;;;;;;8.03;5.27;;;;;;;10.85;98.01;101406.94;2098472;28;20106;-63
2021/09/16 02:40:23;;;;;;;10.17;6.20;;;;;;;10.87;98.05;101412.94;2098534;28;20027;-62
2021/09/16 02:41:24;;;;;;;7.47;5.20;;;;;;;10.91;97.61;101409.31;2098566;28;20019;-64
2021/09/16 02:42:24;;;;;;;12.60;5.40;;;;;;;10.90;97.91;101412.84;2089318;28;20609;-62
2021/09/16 02:43:24;;;;;;;7.73;5.30;;;;;;;10.92;97.51;101416.28;2089515;28;20104;-64
2021/09/16 02:44:25;;;;;;;9.63;6.03;;;;;;;10.93;97.38;101412.75;2089602;28;20055;-63
2021/09/16 02:45:25;;;;;;;8.33;5.37;;;;;;;10.93;97.78;101417.97;2098462;28;20028;-63
2021/09/16 02:46:25;;;;;;;8.27;5.00;;;;;;;10.89;97.28;101416.38;2098382;28;20078;-63
2021/09/16 02:47:26;;;;;;;7.90;4.90;;;;;;;10.87;97.93;101415.56;2098605;28;20470;-63
2021/09/16 02:48:26;;;;;;;4.83;4.30;;;;;;;10.89;97.90;101411.16;2098335;28;20032;-64
2021/09/16 02:49:26;;;;;;;7.23;4.93;;;;;;;10.93;97.63;101413.59;2098383;28;20043;-64
2021/09/16 02:50:26;;;;;;;10.07;5.27;;;;;;;10.95;97.59;101416.16;2098364;28;20020;-64
2021/09/16 02:51:27;;;;;;;11.93;6.07;;;;;;;10.96;97.90;101407.41;2098436;28;20024;-65
2021/09/16 02:52:27;;;;;;;5.53;4.97;;;;;;;10.94;97.89;101401.38;2098483;28;20496;-64
2021/09/16 02:53:27;;;;;;;8.70;5.33;;;;;;;10.92;97.48;101413.66;2098385;28;20028;-64
2021/09/16 02:54:27;;;;;;;9.67;5.83;;;;;;;10.92;97.27;101404.03;2098460;28;20017;-64
2021/09/16 02:55:28;;;;;;;6.73;5.27;;;;;;;10.91;97.56;101410.19;2098254;28;20059;-64
2021/09/16 02:56:28;;;;;;;5.30;4.43;;;;;;;10.92;97.85;101413.66;2098401;28;20024;-63
2021/09/16 02:57:28;;;;;;;6.20;4.70;;;;;;;10.95;97.60;101416.16;2089438;28;20020;-64
2021/09/16 02:58:29;;;;;;;9.33;5.17;;;;;;;10.95;97.69;101413.56;2089489;28;20143;-64
2021/09/16 02:59:29;;;;;;;9.63;6.23;;;;;;;10.92;97.43;101413.66;2089326;28;20096;-64
2021/09/16 03:00:29;;;;;;;8.10;4.87;;;;;;;10.92;98.07;101411.03;2089506;28;20360;-65
2021/09/16 03:01:29;;;;;;;10.00;5.10;;;;;;;10.90;98.07;101412.84;2098200;28;20042;-64
2021/09/16 03:02:30;;;;;;;10.23;5.43;;;;;;;10.90;97.45;101413.72;2089317;28;20464;-63
2021/09/16 03:03:30;;;;;;;8.53;5.50;;;;;;;10.89;97.68;101416.38;2081065;28;20049;-63
2021/09/16 03:04:30;;;;;;;11.33;5.47;;;;;;;10.89;97.53;101405.91;2081063;28;20018;-63
2021/09/16 03:05:30;;;;;;;6.73;4.60;;;;;;;10.88;97.85;101417.28;2089355;28;20013;-64
2021/09/16 03:06:31;;;;;;;6.67;5.03;;;;;;;10.90;98.20;101412.84;2098365;28;20478;-64
2021/09/16 03:07:31;;;;;;;8.67;5.03;;;;;;;10.89;98.42;101416.38;2098339;28;20111;-63
2021/09/16 03:08:31;;;;;;;10.63;5.70;;;;;;;10.89;98.17;101416.38;2098316;28;20016;-63
2021/09/16 03:09:32;;;;;;;8.70;5.40;;;;;;;10.87;97.89;101413.81;2098316;28;20044;-64
2021/09/16 03:10:32;;;;;;;7.43;6.03;;;;;;;10.87;97.81;101416.41;2089404;28;20093;-63
2021/09/16 03:11:32;;;;;;;9.20;5.60;;;;;;;10.86;97.85;101417.34;2089418;28;20056;-63
2021/09/16 03:12:33;;;;;;;7.23;4.57;;;;;;;10.86;97.98;101411.25;2098337;28;20271;-64
2021/09/16 03:13:33;;;;;;;9.63;6.50;;;;;;;10.89;98.33;101411.16;2098368;28;20111;-64
2021/09/16 03:14:33;;;;;;;9.87;5.10;;;;;;;10.88;98.07;101414.66;2098295;28;20024;-64
2021/09/16 03:15:34;;;;;;;14.87;5.97;;;;;;;10.89;98.10;101421.59;2098216;28;20013;-62
2021/09/16 03:16:34;;;;;;;12.70;5.50;;;;;;;10.89;98.14;101417.22;2098280;28;20017;-63
2021/09/16 03:17:34;;;;;;;7.60;5.77;;;;;;;10.91;98.61;101422.38;2089316;28;20112;-63
2021/09/16 03:18:34;;;;;;;7.00;6.27;;;;;;;10.91;98.78;101419.75;2089414;28;20035;-65
2021/09/16 03:19:35;;;;;;;10.63;6.30;;;;;;;10.94;98.45;101422.28;2098197;28;20033;-63
2021/09/16 03:20:35;;;;;;;10.03;6.10;;;;;;;10.98;98.53;101420.44;2089121;28;20072;-64
2021/09/16 03:21:35;;;;;;;10.03;6.70;;;;;;;10.98;98.13;101418.66;2089436;28;20017;-63
2021/09/16 03:22:35;;;;;;;10.10;6.33;;;;;;;10.99;98.10;101412.53;2098116;28;20111;-63
2021/09/16 03:23:36;;;;;;;6.97;5.13;;;;;;;10.97;98.42;101413.47;2098284;28;20024;-63
2021/09/16 03:24:36;;;;;;;8.53;5.93;;;;;;;10.97;98.26;101416.94;2098193;28;20052;-63
2021/09/16 03:25:36;;;;;;;11.37;6.47;;;;;;;10.98;98.96;101410.81;2089243;28;20108;-63
2021/09/16 03:26:36;;;;;;;11.37;6.70;;;;;;;10.97;98.28;101411.72;2089406;28;20079;-63
2021/09/16 03:27:37;;;;;;;8.83;6.13;;;;;;;10.99;98.90;101412.53;2098135;28;20107;-63
2021/09/16 03:28:39;;;;;;;11.30;6.37;;;;;;;11.02;98.31;101412.41;2098233;28;20028;-62
2021/09/16 03:29:40;;;;;;;9.27;5.85;;;;;;;11.02;98.38;101417.63;2089203;28;20381;-64
2021/09/16 03:30:40;;;;;;;16.00;8.23;;;;;;;11.03;98.94;101419.34;2081055;28;20025;-63
2021/09/16 03:31:40;;;;;;;7.40;6.33;;;;;;;11.04;98.56;101410.63;2089227;28;20036;-64
2021/09/16 03:32:42;;;;;;;7.40;5.87;;;;;;;11.04;98.82;101421.06;2098173;28;20024;-64
2021/09/16 03:33:42;;;;;;;9.73;5.53;;;;;;;11.04;98.39;101421.06;2098173;28;20410;-63
2021/09/16 03:34:42;;;;;;;6.33;5.23;;;;;;;11.05;98.44;101420.13;2098277;28;20031;-63
2021/09/16 03:35:43;;;;;;;9.90;5.83;;;;;;;11.06;98.64;101429.69;2098220;28;20023;-63
2021/09/16 03:36:43;;;;;;;6.33;4.97;;;;;;;11.02;98.32;101428.09;2089299;28;20517;-63
2021/09/16 03:37:43;;;;;;;10.33;6.60;;;;;;;11.01;97.72;101429.00;2089348;28;20561;-64
2021/09/16 03:38:43;;;;;;;10.77;5.53;;;;;;;11.02;98.67;101422.03;2098180;28;20161;-62
2021/09/16 03:39:44;;;;;;;8.33;5.60;;;;;;;11.04;98.96;101431.50;2098076;28;20477;-63
2021/09/16 03:40:44;;;;;;;7.97;5.33;;;;;;;11.05;98.87;101427.16;2098185;28;20117;-63
2021/09/16 03:41:44;;;;;;;7.47;5.80;;;;;;;11.08;98.19;101427.88;2098215;28;20073;-63
2021/09/16 03:42:46;;;;;;;9.03;6.07;;;;;;;11.08;98.84;101438.31;2098089;28;20100;-63
2021/09/16 03:43:46;;;;;;;10.05;6.28;;;;;;;11.08;98.52;101433.09;2098212;28;20020;-64
2021/09/16 03:44:46;;;;;;;10.57;5.90;;;;;;;11.08;98.24;101433.09;2089153;28;20513;-63
2021/09/16 03:45:46;;;;;;;6.27;5.50;;;;;;;11.08;98.33;101432.25;2089332;28;20493;-64
2021/09/16 03:46:47;;;;;;;9.03;6.00;;;;;;;11.04;98.06;101434.13;2098143;28;20090;-64
2021/09/16 03:47:47;;;;;;;7.47;5.03;;;;;;;11.01;98.15;101434.22;2098165;28;20048;-64
2021/09/16 03:48:47;;;;;;;8.83;4.97;;;;;;;11.00;99.14;101440.34;2089191;28;20040;-64
2021/09/16 03:49:47;;;;;;;9.53;5.30;;;;;;;11.02;98.65;101430.69;2089296;28;20025;-65
2021/09/16 03:50:48;;;;;;;9.30;6.00;;;;;;;11.01;98.56;101434.22;2098103;28;20051;-63
2021/09/16 03:51:48;;;;;;;7.53;5.80;;;;;;;10.99;98.57;101438.66;2098088;28;20032;-63
2021/09/16 03:52:48;;;;;;;9.80;6.37;;;;;;;10.99;98.74;101428.22;2098212;28;20066;-62
2021/09/16 03:53:49;;;;;;;11.20;5.87;;;;;;;10.98;98.68;101430.88;2098129;28;20036;-63
2021/09/16 03:54:49;;;;;;;13.83;7.37;;;;;;;10.95;98.54;101431.84;2089734;28;20028;-64
2021/09/16 03:55:49;;;;;;;6.20;5.60;;;;;;;10.94;98.46;101435.31;2082521;28;20021;-63
2021/09/16 03:56:49;;;;;;;6.60;5.37;;;;;;;10.93;98.38;101441.47;2090872;28;20029;-63
2021/09/16 03:57:49;;;;;;;8.03;6.13;;;;;;;10.93;99.25;101444.06;2090831;28;20040;-64
2021/09/16 03:58:50;;;;;;;10.93;6.27;;;;;;;10.93;98.85;101437.09;2090806;28;20029;-64
2021/09/16 03:59:50;;;;;;;9.57;6.70;;;;;;;10.94;98.74;101430.97;2099646;28;20082;-64
2021/09/16 04:00:50;;;;;;;10.23;6.27;;;;;;;10.92;98.41;101439.78;2090768;28;20385;-62
2021/09/16 04:01:51;;;;;;;13.20;6.93;;;;;;;10.90;98.52;101438.94;2090773;28;20025;-64
2021/09/16 04:02:51;;;;;;;9.97;6.43;;;;;;;10.91;98.40;101440.66;2099589;28;20032;-63
2021/09/16 04:03:51;;;;;;;7.73;6.30;;;;;;;10.89;99.04;101440.72;2099582;28;20028;-63
2021/09/16 04:04:51;;;;;;;11.53;7.07;;;;;;;10.85;98.90;101441.75;2090758;28;20063;-64
2021/09/16 04:05:52;;;;;;;13.63;7.47;;;;;;;10.81;98.16;101435.75;2090780;28;20091;-63
2021/09/16 04:06:52;;;;;;;11.13;7.10;;;;;;;10.79;98.29;101437.59;2099636;28;20024;-64
2021/09/16 04:07:52;;;;;;;7.07;6.23;;;;;;;10.78;99.20;101441.06;2099593;28;20082;-63
2021/09/16 04:08:52;;;;;;;12.97;7.50;;;;;;;10.76;98.98;101432.47;2099540;28;20103;-65
2021/09/16 04:09:53;;;;;;;7.63;6.17;;;;;;;10.76;98.49;101436.81;2099658;28;20074;-63
2021/09/16 04:10:53;;;;;;;9.27;5.87;;;;;;;10.77;98.68;101439.38;2090687;28;20025;-65
2021/09/16 04:11:53;;;;;;;9.53;6.83;;;;;;;10.78;98.82;101438.47;2090756;28;20069;-64
2021/09/16 04:12:53;;;;;;;8.37;7.20;;;;;;;10.78;98.77;101435.84;2090657;28;20043;-64
2021/09/16 04:13:54;;;;;;;12.73;7.73;;;;;;;10.77;99.46;101442.00;2090774;28;20048;-63
2021/09/16 04:14:54;;;;;;;14.07;7.27;;;;;;;10.77;99.37;101444.59;2099598;28;20024;-64
2021/09/16 04:15:54;;;;;;;12.07;7.27;;;;;;;10.76;99.60;101442.91;2099528;28;20028;-63
2021/09/16 04:16:55;;;;;;;13.65;7.45;;;;;;;10.76;99.51;101440.28;2099571;28;20485;-64
2021/09/16 04:17:55;;;;;;;9.93;7.90;;;;;;;10.76;99.26;101437.69;2099583;28;20032;-64
2021/09/16 04:18:56;;;;;;;12.30;7.23;;;;;;;10.73;99.54;101437.78;2099589;28;20314;-64
2021/09/16 04:19:56;;;;;;;8.05;7.03;;;;;;;10.73;99.12;101436.91;2099443;28;20039;-65
2021/09/16 04:20:57;;;;;;;12.30;7.43;;;;;;;10.77;99.64;101439.38;2099579;28;20055;-64
2021/09/16 04:21:57;;;;;;;10.63;8.00;;;;;;;10.77;99.73;101442.00;2099546;28;20394;-64
2021/09/16 04:22:57;;;;;;;9.23;7.13;;;;;;;10.74;99.40;101436.03;2099563;28;20028;-64
2021/09/16 04:23:58;;;;;;;9.67;7.07;;;;;;;10.72;99.29;101445.66;2099563;28;20059;-64
2021/09/16 04:24:58;;;;;;;12.70;8.03;;;;;;;10.71;98.83;101441.34;2090689;28;20495;-64
2021/09/16 04:25:58;;;;;;;11.70;7.43;;;;;;;10.71;99.71;101433.50;2090587;28;20037;-64
2021/09/16 04:26:58;;;;;;;13.20;8.77;;;;;;;10.71;99.34;101444.78;2099316;28;20028;-64
2021/09/16 04:27:59;;;;;;;12.40;7.90;;;;;;;10.68;99.50;101439.69;2099651;28;20506;-64
2021/09/16 04:28:59;;;;;;;14.50;8.57;;;;;;;10.66;99.24;101450.19;2099484;28;20367;-63
2021/09/16 04:29:59;;;;;;;9.23;8.30;;;;;;;10.63;99.49;101444.19;2099433;28;20531;-64
2021/09/16 04:31:00;;;;;;;15.67;7.97;;;;;;;10.64;99.65;101443.31;2099509;28;20145;-64
2021/09/16 04:32:00;;;;;;;12.13;8.37;;;;;;;10.60;99.09;101436.50;2099599;28;20042;-63
2021/09/16 04:33:00;;;;;;;9.07;7.60;;;;;;;10.59;99.52;101445.19;2090618;28;20025;-63
2021/09/16 04:34:00;;;;;;;11.90;7.20;;;;;;;10.58;99.71;101443.50;2090632;28;20500;-66
2021/09/16 04:35:01;;;;;;;12.57;8.17;;;;;;;10.58;99.60;101443.50;2099493;28;20457;-63
2021/09/16 04:36:01;;;;;;;8.90;7.53;;;;;;;10.55;99.75;101445.28;2099378;28;20039;-64
2021/09/16 04:37:01;;;;;;;10.03;7.93;;;;;;;10.56;99.30;101447.03;2099465;28;20036;-63
2021/09/16 04:38:02;;;;;;;13.30;8.67;;;;;;;10.60;99.54;101447.75;2099552;28;20497;-65
2021/09/16 04:39:04;;;;;;;11.07;8.97;;;;;;;10.60;99.98;101441.72;2099469;28;20032;-64
2021/09/16 04:40:05;;;;;;;10.32;8.13;;;;;;;10.61;99.59;101446.03;2099219;28;20033;-64
2021/09/16 04:41:06;;;;;;;13.15;9.43;;;;;;;10.60;99.66;101449.53;2099301;28;20035;-65